createdAt,value
2023-02-16T00:00:14.968Z,8.4
2023-02-16T00:02:43.227Z,8.3
2023-02-16T00:05:11.479Z,8.4
2023-02-16T00:07:39.737Z,8.4
2023-02-16T00:10:08.009Z,8.5
2023-02-16T00:12:36.258Z,8.7
2023-02-16T00:17:32.766Z,8.7
2023-02-16T00:20:01.026Z,8.4
2023-02-16T00:21:15.764Z,8.6
2023-02-16T00:22:29.306Z,8.7
2023-02-16T00:24:57.564Z,8.7
2023-02-16T00:27:25.814Z,8.7
2023-02-16T00:29:54.070Z,8.7
2023-02-16T00:32:22.327Z,8.8
2023-02-16T00:34:50.589Z,8.8
2023-02-16T00:37:18.848Z,8.7
2023-02-16T00:39:47.097Z,8.7
2023-02-16T00:42:15.355Z,8.3
2023-02-16T00:44:43.611Z,8.2
2023-02-16T00:47:11.869Z,8.6
2023-02-16T00:49:40.133Z,8.1
2023-02-16T00:52:08.386Z,8.2
2023-02-16T00:54:36.646Z,8.1
2023-02-16T00:57:04.904Z,8.3
2023-02-16T00:59:33.162Z,8.4
2023-02-16T01:02:01.418Z,8.3
2023-02-16T01:04:29.669Z,8.5
2023-02-16T01:06:57.934Z,8.5
2023-02-16T01:09:26.188Z,8.1
2023-02-16T01:10:40.934Z,8.1
2023-02-16T01:11:54.484Z,8.1
2023-02-16T01:14:22.734Z,8.2
2023-02-16T01:19:19.256Z,8.5
2023-02-16T01:21:47.505Z,8.6
2023-02-16T01:24:15.771Z,8.1
2023-02-16T01:26:44.020Z,7.9
2023-02-16T01:29:12.280Z,8.2
2023-02-16T01:31:40.536Z,8.5
2023-02-16T01:34:08.790Z,8.5
2023-02-16T01:35:23.523Z,8.5
2023-02-16T01:36:37.073Z,8.6
2023-02-16T01:39:05.329Z,7.9
2023-02-16T01:41:33.589Z,8.3
2023-02-16T01:44:01.839Z,8.1
2023-02-16T01:46:30.105Z,8.3
2023-02-16T01:51:26.617Z,7.9
2023-02-16T01:53:54.875Z,7.9
2023-02-16T01:56:23.128Z,8.3
2023-02-16T01:58:51.382Z,8.4
2023-02-16T02:00:06.116Z,8.3
2023-02-16T02:01:19.666Z,8.3
2023-02-16T02:03:47.915Z,8.1
2023-02-16T02:06:16.177Z,8.2
2023-02-16T02:08:44.428Z,8.1
2023-02-16T02:11:12.691Z,8.4
2023-02-16T02:13:40.951Z,8.1
2023-02-16T02:16:09.199Z,8.3
2023-02-16T02:18:37.459Z,8.2
2023-02-16T02:23:33.976Z,8.6
2023-02-16T02:24:48.710Z,9
2023-02-16T02:26:02.248Z,9
2023-02-16T02:28:30.512Z,8.8
2023-02-16T02:30:58.661Z,9
2023-02-16T02:33:26.920Z,8.6
2023-02-16T02:38:23.430Z,8.2
2023-02-16T02:40:51.694Z,8.3
2023-02-16T02:43:19.946Z,8.4
2023-02-16T02:45:48.205Z,8.3
2023-02-16T02:48:16.457Z,8.1
2023-02-16T02:49:31.189Z,7.8
2023-02-16T02:53:13.226Z,8
2023-02-16T02:55:41.481Z,8.3
2023-02-16T02:58:09.740Z,8.4
2023-02-16T03:00:38.000Z,8.2
2023-02-16T03:03:06.251Z,7.9
2023-02-16T03:05:34.513Z,7.9
2023-02-16T03:08:02.772Z,8.1
2023-02-16T03:10:31.022Z,8.5
2023-02-16T03:12:59.286Z,8.3
2023-02-16T03:14:14.021Z,8.4
2023-02-16T03:15:27.556Z,8.4
2023-02-16T03:17:55.817Z,8.4
2023-02-16T03:20:24.072Z,8.1
2023-02-16T03:25:20.591Z,8.3
2023-02-16T03:27:48.842Z,8.3
2023-02-16T03:30:17.199Z,8.3
2023-02-16T03:32:45.462Z,7.9
2023-02-16T03:35:13.715Z,7.7
2023-02-16T03:37:41.972Z,8
2023-02-16T03:38:56.709Z,8.1
2023-02-16T03:40:10.250Z,8.1
2023-02-16T03:42:38.507Z,8.3
2023-02-16T03:45:06.764Z,8.5
2023-02-16T03:47:35.018Z,8.4
2023-02-16T03:50:03.277Z,8.3
2023-02-16T03:52:31.539Z,8.2
2023-02-16T03:57:28.051Z,8.3
2023-02-16T03:59:56.307Z,8
2023-02-16T04:02:24.563Z,7.8
2023-02-16T04:03:39.291Z,8
2023-02-16T04:04:52.837Z,8.1
2023-02-16T04:07:21.093Z,7.9
2023-02-16T04:09:49.350Z,8
2023-02-16T04:12:17.606Z,8.3
2023-02-16T04:14:45.871Z,8.2
2023-02-16T04:17:14.125Z,8.2
2023-02-16T04:19:42.381Z,8.3
2023-02-16T04:22:10.641Z,8
2023-02-16T04:24:38.891Z,8.2
2023-02-16T04:28:21.888Z,8
2023-02-16T04:29:35.429Z,7.7
2023-02-16T04:32:03.679Z,7.9
2023-02-16T04:34:31.943Z,8.3
2023-02-16T04:37:00.201Z,8.5
2023-02-16T04:39:28.459Z,8.3
2023-02-16T04:41:56.708Z,8.3
2023-02-16T04:44:24.965Z,7.8
2023-02-16T04:46:53.221Z,7.8
2023-02-16T04:49:21.479Z,8.2
2023-02-16T04:51:49.745Z,8.1
2023-02-16T04:53:04.475Z,7.8
2023-02-16T04:54:18.019Z,7.5
2023-02-16T04:59:14.531Z,7.5
2023-02-16T05:01:42.785Z,8.1
2023-02-16T05:04:11.043Z,8.2
2023-02-16T05:06:39.302Z,8.2
2023-02-16T05:09:07.562Z,8
2023-02-16T05:11:35.814Z,8
2023-02-16T05:14:04.074Z,7.8
2023-02-16T05:16:32.328Z,7.6
2023-02-16T05:17:47.065Z,7.9
2023-02-16T05:19:00.603Z,7.9
2023-02-16T05:21:28.866Z,8
2023-02-16T05:23:57.120Z,8.1
2023-02-16T05:26:25.374Z,7.7
2023-02-16T05:31:21.887Z,8
2023-02-16T05:33:50.147Z,8.5
2023-02-16T05:36:18.405Z,8.2
2023-02-16T05:38:46.660Z,8.2
2023-02-16T05:41:14.922Z,7.9
2023-02-16T05:42:29.656Z,8
2023-02-16T05:43:43.196Z,8.1
2023-02-16T05:46:11.456Z,8
2023-02-16T05:48:39.708Z,8.2
2023-02-16T05:51:07.971Z,8.3
2023-02-16T05:53:36.226Z,8.4
2023-02-16T05:56:04.486Z,8.3
2023-02-16T05:58:32.739Z,8.5
2023-02-16T06:03:29.253Z,8.2
2023-02-16T06:05:57.509Z,8
2023-02-16T06:07:12.241Z,8
2023-02-16T06:08:25.787Z,7.9
2023-02-16T06:10:54.050Z,7.9
2023-02-16T06:13:22.307Z,8
2023-02-16T06:15:50.566Z,8.1
2023-02-16T06:18:18.823Z,7.8
2023-02-16T06:20:47.080Z,8.2
2023-02-16T06:23:15.334Z,8.4
2023-02-16T06:25:43.589Z,8.3
2023-02-16T06:28:11.851Z,8.4
2023-02-16T06:30:40.105Z,8.6
2023-02-16T06:33:08.357Z,8.9
2023-02-16T06:35:36.613Z,9
2023-02-16T06:38:04.871Z,9
2023-02-16T06:40:33.128Z,9.2
2023-02-16T06:43:01.391Z,8.9
2023-02-16T06:45:29.644Z,9.2
2023-02-16T06:47:57.903Z,8.9
2023-02-16T06:50:26.158Z,8.7
2023-02-16T06:52:54.414Z,8.6
2023-02-16T06:55:22.675Z,8.6
2023-02-16T06:56:37.422Z,9
2023-02-16T06:57:50.966Z,9.2
2023-02-16T07:00:19.221Z,9.1
2023-02-16T07:05:15.736Z,9.1
2023-02-16T07:07:43.996Z,8.6
2023-02-16T07:10:12.253Z,8.7
2023-02-16T07:12:40.513Z,8.3
2023-02-16T07:15:08.766Z,8.6
2023-02-16T07:17:37.023Z,8.5
2023-02-16T07:20:05.283Z,8.8
2023-02-16T07:21:20.016Z,9.2
2023-02-16T07:22:33.556Z,9.2
2023-02-16T07:25:01.814Z,9.4
2023-02-16T07:27:30.070Z,9.5
2023-02-16T07:29:58.335Z,9.3
2023-02-16T07:32:26.589Z,9.5
2023-02-16T07:37:23.109Z,9.7
2023-02-16T07:39:51.365Z,9.4
2023-02-16T07:42:19.624Z,9.2
2023-02-16T07:44:47.878Z,9.2
2023-02-16T07:46:02.611Z,9.4
2023-02-16T07:47:16.156Z,9.3
2023-02-16T07:49:44.412Z,9.6
2023-02-16T07:52:12.665Z,9.4
2023-02-16T07:54:40.931Z,9.5
2023-02-16T07:57:09.183Z,9.7
2023-02-16T07:59:37.438Z,9.6
2023-02-16T08:02:05.700Z,8.9
2023-02-16T08:04:33.954Z,8.9
2023-02-16T08:09:30.469Z,9.1
2023-02-16T08:10:45.201Z,9.3
2023-02-16T08:11:58.750Z,9.4
2023-02-16T08:14:27.004Z,9.5
2023-02-16T08:16:55.266Z,9.8
2023-02-16T08:19:23.517Z,10.1
2023-02-16T08:21:51.782Z,9.7
2023-02-16T08:24:20.030Z,9.1
2023-02-16T08:26:48.289Z,9.1
2023-02-16T08:29:16.547Z,9.5
2023-02-16T08:31:44.804Z,9.4
2023-02-16T08:34:13.062Z,9.3
2023-02-16T08:35:27.800Z,9.7
2023-02-16T08:39:09.831Z,9.7
2023-02-16T08:41:38.080Z,9.3
2023-02-16T08:44:06.345Z,9.2
2023-02-16T08:46:34.596Z,9
2023-02-16T08:49:02.852Z,9.3
2023-02-16T08:51:31.110Z,9.5
2023-02-16T08:53:59.370Z,9.2
2023-02-16T08:56:27.623Z,9.6
2023-02-16T08:58:55.885Z,9.5
2023-02-16T09:00:10.620Z,9.2
2023-02-16T09:01:24.160Z,9.4
2023-02-16T09:03:52.422Z,9.2
2023-02-16T09:06:20.675Z,9.4
2023-02-16T09:11:17.190Z,9.2
2023-02-16T09:13:45.448Z,9.7
2023-02-16T09:16:13.697Z,9.5
2023-02-16T09:18:41.963Z,10
2023-02-16T09:21:10.217Z,9.9
2023-02-16T09:23:38.471Z,9.5
2023-02-16T09:24:53.204Z,9.9
2023-02-16T09:26:06.753Z,10
2023-02-16T09:28:35.007Z,9.6
2023-02-16T09:31:03.257Z,9.5
2023-02-16T09:33:31.519Z,9.6
2023-02-16T09:35:59.772Z,9.8
2023-02-16T09:38:28.031Z,10
2023-02-16T09:43:24.536Z,9.9
2023-02-16T09:45:52.799Z,9.5
2023-02-16T09:48:21.055Z,10.2
2023-02-16T09:49:35.783Z,10.4
2023-02-16T09:50:49.331Z,10.6
2023-02-16T09:53:17.590Z,10.9
2023-02-16T09:55:45.849Z,10.1
2023-02-16T09:58:14.106Z,10.7
2023-02-16T10:00:42.356Z,11.2
2023-02-16T10:03:10.620Z,10.6
2023-02-16T10:05:38.876Z,10.4
2023-02-16T10:08:07.130Z,10.9
2023-02-16T10:10:35.395Z,10.8
2023-02-16T10:14:18.383Z,10.2
2023-02-16T10:15:31.926Z,10.3
2023-02-16T10:18:00.180Z,9.9
2023-02-16T10:20:28.438Z,10.2
2023-02-16T10:22:56.699Z,10.5
2023-02-16T10:25:24.955Z,10.6
2023-02-16T10:27:53.213Z,10.9
2023-02-16T10:30:21.468Z,10.4
2023-02-16T10:32:49.720Z,9.8
2023-02-16T10:35:17.982Z,10.7
2023-02-16T10:37:46.242Z,10.5
2023-02-16T10:39:00.970Z,10.9
2023-02-16T10:40:14.519Z,11.1
2023-02-16T10:45:11.029Z,10.4
2023-02-16T10:47:39.287Z,10.3
2023-02-16T10:50:07.544Z,10.8
2023-02-16T10:52:35.802Z,11.4
2023-02-16T10:55:04.059Z,12
2023-02-16T10:57:32.311Z,12.3
2023-02-16T11:00:00.573Z,10.9
2023-02-16T11:02:28.834Z,10.5
2023-02-16T11:03:43.558Z,11.1
2023-02-16T11:04:57.110Z,11
2023-02-16T11:07:25.368Z,11.2
2023-02-16T11:09:53.618Z,10.5
2023-02-16T11:12:21.881Z,11.3
2023-02-16T11:17:18.391Z,11.4
2023-02-16T11:19:46.651Z,11.6
2023-02-16T11:22:14.908Z,11.9
2023-02-16T11:24:43.166Z,11.2
2023-02-16T11:27:11.414Z,12.3
2023-02-16T11:28:26.154Z,11
2023-02-16T11:29:39.696Z,11.7
2023-02-16T11:32:07.949Z,11.6
2023-02-16T11:34:36.206Z,12.1
2023-02-16T11:37:04.463Z,11.8
2023-02-16T11:39:32.725Z,12.9
2023-02-16T11:42:00.981Z,12.6
2023-02-16T11:44:29.234Z,11.6
2023-02-16T11:49:25.746Z,11.9
2023-02-16T11:51:54.009Z,12.1
2023-02-16T11:53:08.735Z,12.4
2023-02-16T11:54:22.276Z,12.5
2023-02-16T11:56:50.538Z,12.1
2023-02-16T11:59:18.794Z,11.5
2023-02-16T12:01:47.050Z,12.4
2023-02-16T12:04:15.306Z,11.7
2023-02-16T12:06:43.563Z,11.4
2023-02-16T12:09:11.822Z,11.7
2023-02-16T12:11:40.080Z,11.5
2023-02-16T12:14:08.335Z,12.1
2023-02-16T12:16:36.594Z,11.9
2023-02-16T12:19:04.847Z,12.2
2023-02-16T12:21:33.108Z,12.2
2023-02-16T12:24:01.364Z,12.6
2023-02-16T12:26:29.618Z,12
2023-02-16T12:28:57.875Z,12
2023-02-16T12:31:26.125Z,12.3
2023-02-16T12:33:54.380Z,12.4
2023-02-16T12:36:22.646Z,12.9
2023-02-16T12:38:50.900Z,12.4
2023-02-16T12:41:19.153Z,12.4
2023-02-16T12:42:33.907Z,12.8
2023-02-16T12:43:47.450Z,12.6
2023-02-16T12:46:15.708Z,12.8
2023-02-16T12:51:12.223Z,11.9
2023-02-16T12:53:40.475Z,12.4
2023-02-16T12:56:08.732Z,11.9
2023-02-16T12:58:36.988Z,12.3
2023-02-16T13:01:05.242Z,13.2
2023-02-16T13:03:33.508Z,12.8
2023-02-16T13:06:01.762Z,12.6
2023-02-16T13:07:16.496Z,13.6
2023-02-16T13:08:30.036Z,14.1
2023-02-16T13:10:58.292Z,13.9
2023-02-16T13:13:26.551Z,14
2023-02-16T13:15:54.806Z,13.1
2023-02-16T13:18:23.068Z,13.2
2023-02-16T13:23:19.582Z,13.8
2023-02-16T13:25:47.834Z,14.9
2023-02-16T13:28:16.093Z,14
2023-02-16T13:30:44.349Z,13
2023-02-16T13:31:59.089Z,12.9
2023-02-16T13:33:12.629Z,12.4
2023-02-16T13:35:40.883Z,12.5
2023-02-16T13:38:09.143Z,12.6
2023-02-16T13:40:37.404Z,12.3
2023-02-16T13:43:05.658Z,12.4
2023-02-16T13:45:33.909Z,12.8
2023-02-16T13:48:02.173Z,13.3
2023-02-16T13:50:30.427Z,13.1
2023-02-16T13:55:26.941Z,13
2023-02-16T13:56:41.672Z,12.3
2023-02-16T13:57:55.222Z,12.6
2023-02-16T14:00:23.472Z,13
2023-02-16T14:02:51.730Z,13.5
2023-02-16T14:05:19.992Z,13.6
2023-02-16T14:07:48.245Z,13.4
2023-02-16T14:10:16.508Z,13.2
2023-02-16T14:12:44.759Z,12.8
2023-02-16T14:15:13.020Z,13.1
2023-02-16T14:17:41.280Z,12.6
2023-02-16T14:20:09.530Z,13.6
2023-02-16T14:21:24.270Z,14.1
2023-02-16T14:25:06.296Z,13.3
2023-02-16T14:27:34.560Z,14.2
2023-02-16T14:30:02.817Z,14.6
2023-02-16T14:32:31.073Z,13.9
2023-02-16T14:34:59.327Z,14.2
2023-02-16T14:37:27.581Z,14
2023-02-16T14:39:55.838Z,13.9
2023-02-16T14:42:24.096Z,14
2023-02-16T14:44:52.350Z,14.2
2023-02-16T14:46:07.086Z,14.9
2023-02-16T14:47:20.628Z,14.8
2023-02-16T14:49:48.884Z,15
2023-02-16T14:52:17.148Z,14.8
2023-02-16T14:57:13.658Z,15
2023-02-16T14:59:41.917Z,14.7
2023-02-16T15:02:10.175Z,15.2
2023-02-16T15:04:38.426Z,14.3
2023-02-16T15:07:06.688Z,14.6
2023-02-16T15:09:34.937Z,14.9
2023-02-16T15:10:49.672Z,13.6
2023-02-16T15:12:03.223Z,14
2023-02-16T15:14:31.477Z,14.4
2023-02-16T15:16:59.735Z,14.6
2023-02-16T15:19:27.987Z,14.8
2023-02-16T15:21:56.250Z,14.8
2023-02-16T15:24:24.500Z,14.5
2023-02-16T15:29:21.013Z,14
2023-02-16T15:31:49.276Z,13.4
2023-02-16T15:34:17.535Z,13.7
2023-02-16T15:35:32.263Z,14.4
2023-02-16T15:36:45.811Z,14.1
2023-02-16T15:39:14.061Z,14.3
2023-02-16T15:41:42.322Z,14.6
2023-02-16T15:44:10.579Z,14.9
2023-02-16T15:46:38.839Z,14.7
2023-02-16T15:49:07.091Z,15
2023-02-16T15:51:35.349Z,14.4
2023-02-16T15:54:03.606Z,14
2023-02-16T15:56:31.865Z,13.7
2023-02-16T16:00:14.850Z,14
2023-02-16T16:01:28.396Z,14
2023-02-16T16:03:56.649Z,14
2023-02-16T16:06:24.910Z,13.8
2023-02-16T16:08:53.169Z,14.4
2023-02-16T16:11:21.422Z,14.8
2023-02-16T16:13:49.676Z,14.6
2023-02-16T16:16:17.941Z,13.8
2023-02-16T16:18:46.197Z,15.1
2023-02-16T16:21:14.451Z,14.3
2023-02-16T16:23:42.707Z,14.6
2023-02-16T16:24:57.440Z,14.4
2023-02-16T16:26:10.979Z,14.3
2023-02-16T16:31:07.493Z,14.3
2023-02-16T16:33:35.755Z,14.2
2023-02-16T16:36:04.010Z,14.3
2023-02-16T16:38:32.265Z,13.9
2023-02-16T16:41:00.517Z,13.3
2023-02-16T16:43:28.778Z,13.2
2023-02-16T16:45:57.032Z,13.5
2023-02-16T16:48:25.293Z,13.8
2023-02-16T16:49:40.029Z,13.5
2023-02-16T16:50:53.565Z,13.5
2023-02-16T16:53:21.823Z,14.1
2023-02-16T16:55:50.083Z,13.6
2023-02-16T16:58:18.335Z,13.5
2023-02-16T17:03:14.848Z,13.6
2023-02-16T17:05:43.107Z,14.4
2023-02-16T17:08:11.367Z,13.9
2023-02-16T17:10:39.623Z,14.4
2023-02-16T17:13:07.883Z,14.3
2023-02-16T17:14:22.613Z,14.5
2023-02-16T17:15:36.153Z,13.7
2023-02-16T17:18:04.409Z,14.1
2023-02-16T17:20:32.665Z,14.7
2023-02-16T17:23:00.927Z,13.7
2023-02-16T17:25:29.183Z,13.7
2023-02-16T17:27:57.442Z,14.6
2023-02-16T17:30:25.690Z,14.7
2023-02-16T17:35:22.204Z,15
2023-02-16T17:37:50.460Z,13.4
2023-02-16T17:39:05.193Z,14.2
2023-02-16T17:40:18.739Z,14.1
2023-02-16T17:42:46.987Z,13.7
2023-02-16T17:45:15.251Z,14.4
2023-02-16T17:47:43.508Z,14.9
2023-02-16T17:50:11.760Z,14.6
2023-02-16T17:52:40.015Z,14.7
2023-02-16T17:55:08.276Z,15.1
2023-02-16T17:57:36.528Z,14.6
2023-02-16T18:00:04.790Z,14.4
2023-02-16T18:02:33.044Z,15.1
2023-02-16T18:05:01.309Z,13.9
2023-02-16T18:07:29.561Z,14.2
2023-02-16T18:09:57.823Z,14.4
2023-02-16T18:12:26.075Z,14.1
2023-02-16T18:14:54.327Z,14.3
2023-02-16T18:17:22.591Z,14.2
2023-02-16T18:19:50.850Z,14.6
2023-02-16T18:22:19.100Z,14.4
2023-02-16T18:24:47.364Z,13.4
2023-02-16T18:27:15.611Z,13.6
2023-02-16T18:28:30.369Z,14.4
2023-02-16T18:29:43.916Z,14
2023-02-16T18:32:12.167Z,13.6
2023-02-16T18:37:08.682Z,13.5
2023-02-16T18:39:36.935Z,13.9
2023-02-16T18:42:05.195Z,14.1
2023-02-16T18:44:33.453Z,13.9
2023-02-16T18:47:01.712Z,13.2
2023-02-16T18:49:29.966Z,13.4
2023-02-16T18:51:58.220Z,14.1
2023-02-16T18:53:12.956Z,13.3
2023-02-16T18:54:26.502Z,13.6
2023-02-16T18:56:54.756Z,13.4
2023-02-16T18:59:23.019Z,13.5
2023-02-16T19:01:51.276Z,13.8
2023-02-16T19:04:19.530Z,14.3
2023-02-16T19:09:16.044Z,13.6
2023-02-16T19:11:44.297Z,13.2
2023-02-16T19:14:12.553Z,13.9
2023-02-16T19:16:40.815Z,13.1
2023-02-16T19:17:55.543Z,13.9
2023-02-16T19:19:09.089Z,14.3
2023-02-16T19:21:37.349Z,14.2
2023-02-16T19:24:05.605Z,13.3
2023-02-16T19:26:33.858Z,13.7
2023-02-16T19:29:02.121Z,13.4
2023-02-16T19:31:30.378Z,13.8
2023-02-16T19:33:58.639Z,13.8
2023-02-16T19:36:26.888Z,13.4
2023-02-16T19:41:23.410Z,13.7
2023-02-16T19:42:38.136Z,13.3
2023-02-16T19:43:51.686Z,13.2
2023-02-16T19:46:19.940Z,13.5
2023-02-16T19:48:48.197Z,13.6
2023-02-16T19:51:16.451Z,14
2023-02-16T19:53:44.715Z,13.7
2023-02-16T19:56:12.969Z,13.8
2023-02-16T19:58:41.222Z,13.9
2023-02-16T20:01:09.487Z,13.8
2023-02-16T20:03:37.735Z,13.9
2023-02-16T20:06:05.993Z,14.6
2023-02-16T20:07:20.733Z,14.7
2023-02-16T20:11:02.762Z,14.5
2023-02-16T20:13:31.023Z,13.9
2023-02-16T20:15:59.271Z,13.6
2023-02-16T20:18:27.529Z,14
2023-02-16T20:20:55.789Z,13.8
2023-02-16T20:23:24.048Z,14.3
2023-02-16T20:25:52.303Z,14.4
2023-02-16T20:28:20.563Z,14.5
2023-02-16T20:30:48.818Z,14.3
2023-02-16T20:32:03.552Z,13.7
2023-02-16T20:33:17.095Z,14.1
2023-02-16T20:35:45.356Z,14.2
2023-02-16T20:38:13.614Z,14.1
2023-02-16T20:43:10.126Z,14.2
2023-02-16T20:45:38.383Z,13.4
2023-02-16T20:48:06.637Z,13.6
2023-02-16T20:50:34.893Z,13.8
2023-02-16T20:53:03.151Z,14.2
2023-02-16T20:55:31.408Z,14.2
2023-02-16T20:56:46.145Z,13.9
2023-02-16T20:57:59.691Z,13.9
2023-02-16T21:00:27.949Z,14.3
2023-02-16T21:02:56.200Z,14.2
2023-02-16T21:05:24.463Z,13.5
2023-02-16T21:07:52.714Z,13.2
2023-02-16T21:10:20.977Z,13.9
2023-02-16T21:15:17.490Z,14.1
2023-02-16T21:17:45.741Z,13.6
2023-02-16T21:20:14.007Z,14.1
2023-02-16T21:21:28.739Z,13.9
2023-02-16T21:22:42.281Z,14.2
2023-02-16T21:25:10.534Z,13.9
2023-02-16T21:27:38.796Z,13.7
2023-02-16T21:30:07.046Z,13.5
2023-02-16T21:32:35.303Z,13.6
2023-02-16T21:35:03.558Z,13.8
2023-02-16T21:37:31.822Z,13.4
2023-02-16T21:40:00.072Z,13.1
2023-02-16T21:42:28.330Z,13
2023-02-16T21:46:11.323Z,13.4
2023-02-16T21:47:24.870Z,13.6
2023-02-16T21:49:53.128Z,14
2023-02-16T21:52:21.378Z,13.7
2023-02-16T21:54:49.638Z,13.5
2023-02-16T21:57:17.900Z,14.1
2023-02-16T21:59:46.154Z,14
2023-02-16T22:02:14.405Z,13.8
2023-02-16T22:04:42.667Z,13.5
2023-02-16T22:07:10.919Z,13.6
2023-02-16T22:09:39.177Z,13.6
2023-02-16T22:10:53.910Z,14.1
2023-02-16T22:12:07.454Z,13.4
2023-02-16T22:17:03.972Z,13.4
2023-02-16T22:19:32.226Z,13.9
2023-02-16T22:22:00.490Z,13.4
2023-02-16T22:24:28.744Z,13.7
2023-02-16T22:26:56.999Z,13.6
2023-02-16T22:29:25.252Z,13.9
2023-02-16T22:31:53.511Z,13.5
2023-02-16T22:34:21.773Z,12.7
2023-02-16T22:35:36.507Z,12.8
2023-02-16T22:36:50.042Z,13.4
2023-02-16T22:39:18.303Z,13.5
2023-02-16T22:41:46.556Z,13.5
2023-02-16T22:44:14.815Z,13.6
2023-02-16T22:49:11.327Z,14.1
2023-02-16T22:51:39.589Z,13.7
2023-02-16T22:54:07.857Z,13.4
2023-02-16T22:56:36.105Z,13.6
2023-02-16T22:59:04.359Z,13.6
2023-02-16T23:00:19.090Z,13.5
2023-02-16T23:01:32.641Z,13.6
2023-02-16T23:04:00.889Z,13.5
2023-02-16T23:06:29.155Z,13.1
2023-02-16T23:08:57.411Z,13.3
2023-02-16T23:11:25.668Z,12.7
2023-02-16T23:13:53.926Z,13.3
2023-02-16T23:16:22.178Z,13.5
2023-02-16T23:21:18.695Z,13.1
2023-02-16T23:23:46.946Z,13.3
2023-02-16T23:25:01.679Z,12.9
2023-02-16T23:26:15.230Z,13.5
2023-02-16T23:28:43.486Z,13.5
2023-02-16T23:31:11.740Z,14.1
2023-02-16T23:33:39.995Z,14.7
2023-02-16T23:36:08.247Z,13.7
2023-02-16T23:38:36.513Z,14.3
2023-02-16T23:41:04.767Z,14.6
2023-02-16T23:43:33.018Z,13.9
2023-02-16T23:46:01.282Z,14.1
2023-02-16T23:48:29.540Z,13.8
2023-02-16T23:50:57.795Z,14.4
2023-02-16T23:53:26.055Z,14.2
2023-02-16T23:55:54.307Z,14.6
2023-02-16T23:58:22.567Z,13.9
